createdAt,value
2018-05-09T00:00:15.412Z,19.96
2018-05-09T00:01:15.404Z,19.96
2018-05-09T00:02:15.405Z,19.98
2018-05-09T00:03:15.422Z,19.99
2018-05-09T00:04:15.398Z,20.01
2018-05-09T00:05:15.433Z,19.98
2018-05-09T00:06:15.781Z,19.99
2018-05-09T00:07:15.389Z,20.02
2018-05-09T00:08:15.465Z,20.01
2018-05-09T00:09:15.408Z,20.01
2018-05-09T00:10:15.416Z,20.02
2018-05-09T00:11:15.412Z,20.02
2018-05-09T00:12:15.408Z,20.02
2018-05-09T00:13:15.418Z,20.02
2018-05-09T00:14:15.410Z,20.02
2018-05-09T00:15:15.399Z,20.02
2018-05-09T00:16:15.823Z,20.01
2018-05-09T00:17:15.556Z,19.98
2018-05-09T00:18:15.416Z,19.96
2018-05-09T00:19:15.425Z,19.98
2018-05-09T00:20:15.404Z,20.01
2018-05-09T00:21:15.413Z,19.98
2018-05-09T00:22:15.411Z,19.99
2018-05-09T00:23:15.450Z,19.99
2018-05-09T00:24:15.407Z,19.98
2018-05-09T00:25:15.401Z,19.98
2018-05-09T00:26:15.432Z,19.96
2018-05-09T00:27:15.409Z,19.95
2018-05-09T00:28:15.417Z,19.96
2018-05-09T00:29:15.423Z,19.93
2018-05-09T00:30:15.431Z,19.98
2018-05-09T00:31:15.640Z,20.01
2018-05-09T00:32:15.413Z,19.99
2018-05-09T00:33:15.449Z,19.93
2018-05-09T00:34:15.402Z,19.92
2018-05-09T00:35:15.418Z,19.96
2018-05-09T00:36:15.403Z,19.93
2018-05-09T00:37:15.406Z,19.93
2018-05-09T00:38:15.411Z,19.96
2018-05-09T00:39:15.429Z,19.96
2018-05-09T00:40:15.429Z,19.98
2018-05-09T00:41:15.411Z,19.95
2018-05-09T00:42:15.435Z,19.99
2018-05-09T00:43:15.497Z,19.96
2018-05-09T00:44:15.454Z,19.93
2018-05-09T00:45:15.438Z,19.95
2018-05-09T00:46:15.443Z,19.96
2018-05-09T00:47:15.442Z,19.96
2018-05-09T00:48:15.731Z,19.93
2018-05-09T00:49:15.446Z,19.95
2018-05-09T00:50:15.654Z,19.92
2018-05-09T00:51:15.434Z,19.95
2018-05-09T00:52:15.430Z,19.95
2018-05-09T00:53:15.814Z,19.96
2018-05-09T00:54:15.585Z,19.95
2018-05-09T00:55:15.479Z,19.95
2018-05-09T00:56:15.470Z,19.92
2018-05-09T00:57:15.409Z,19.86
2018-05-09T00:58:15.449Z,19.89
2018-05-09T00:59:15.462Z,19.84
2018-05-09T01:00:15.437Z,19.82
2018-05-09T01:01:15.448Z,19.84
2018-05-09T01:02:15.446Z,19.81
2018-05-09T01:03:15.503Z,19.82
2018-05-09T01:04:15.450Z,19.81
2018-05-09T01:05:15.479Z,19.79
2018-05-09T01:06:15.462Z,19.82
2018-05-09T01:07:15.456Z,19.81
2018-05-09T01:08:15.457Z,19.81
2018-05-09T01:09:15.435Z,19.74
2018-05-09T01:10:15.459Z,19.74
2018-05-09T01:11:15.481Z,19.75
2018-05-09T01:12:15.483Z,19.74
2018-05-09T01:13:15.468Z,19.77
2018-05-09T01:14:15.439Z,19.71
2018-05-09T01:15:15.539Z,19.75
2018-05-09T01:16:15.514Z,19.74
2018-05-09T01:17:15.447Z,19.74
2018-05-09T01:18:15.498Z,19.72
2018-05-09T01:19:15.519Z,19.72
2018-05-09T01:20:15.469Z,19.68
2018-05-09T01:21:15.473Z,19.7
2018-05-09T01:22:15.464Z,19.71
2018-05-09T01:23:15.568Z,19.68
2018-05-09T01:24:15.462Z,19.68
2018-05-09T01:25:15.507Z,19.71
2018-05-09T01:26:15.674Z,19.68
2018-05-09T01:27:15.456Z,19.65
2018-05-09T01:28:15.457Z,19.67
2018-05-09T01:29:15.475Z,19.65
2018-05-09T01:30:15.446Z,19.62
2018-05-09T01:31:15.466Z,19.64
2018-05-09T01:32:15.490Z,19.64
2018-05-09T01:33:15.488Z,19.62
2018-05-09T01:34:15.480Z,19.6
2018-05-09T01:35:15.487Z,19.61
2018-05-09T01:36:15.528Z,19.6
2018-05-09T01:37:15.488Z,19.61
2018-05-09T01:38:15.542Z,19.61
2018-05-09T01:39:15.499Z,19.58
2018-05-09T01:40:15.524Z,19.56
2018-05-09T01:41:15.477Z,19.56
2018-05-09T01:42:15.536Z,19.57
2018-05-09T01:43:15.508Z,19.58
2018-05-09T01:44:15.471Z,19.56
2018-05-09T01:45:15.487Z,19.54
2018-05-09T01:46:15.496Z,19.53
2018-05-09T01:47:15.498Z,19.5
2018-05-09T01:48:15.504Z,19.5
2018-05-09T01:49:15.660Z,19.5
2018-05-09T01:50:15.511Z,19.47
2018-05-09T01:51:15.526Z,19.47
2018-05-09T01:52:15.492Z,19.47
2018-05-09T01:53:15.717Z,19.47
2018-05-09T01:54:15.506Z,19.5
2018-05-09T01:55:15.553Z,19.51
2018-05-09T01:56:15.530Z,19.51
2018-05-09T01:57:15.479Z,19.49
2018-05-09T01:58:15.459Z,19.53
2018-05-09T01:59:15.474Z,19.51
2018-05-09T02:00:15.487Z,19.51
2018-05-09T02:01:15.479Z,19.54
2018-05-09T02:02:15.499Z,19.5
2018-05-09T02:03:15.506Z,19.49
2018-05-09T02:04:15.526Z,19.46
2018-05-09T02:05:15.501Z,19.44
2018-05-09T02:06:15.476Z,19.47
2018-05-09T02:07:15.518Z,19.44
2018-05-09T02:08:15.492Z,19.47
2018-05-09T02:09:15.487Z,19.46
2018-05-09T02:10:15.542Z,19.46
2018-05-09T02:11:15.543Z,19.47
2018-05-09T02:12:15.479Z,19.42
2018-05-09T02:13:15.466Z,19.4
2018-05-09T02:14:15.520Z,19.42
2018-05-09T02:15:15.498Z,19.37
2018-05-09T02:16:15.491Z,19.36
2018-05-09T02:17:15.511Z,19.32
2018-05-09T02:18:15.500Z,19.32
2018-05-09T02:19:15.513Z,19.27
2018-05-09T02:20:15.675Z,19.27
2018-05-09T02:21:15.669Z,19.26
2018-05-09T02:22:15.509Z,19.25
2018-05-09T02:23:15.550Z,19.19
2018-05-09T02:24:15.486Z,19.22
2018-05-09T02:25:15.499Z,19.21
2018-05-09T02:26:15.495Z,19.21
2018-05-09T02:27:15.494Z,19.25
2018-05-09T02:28:15.493Z,19.19
2018-05-09T02:29:15.534Z,19.15
2018-05-09T02:30:15.584Z,19.13
2018-05-09T02:31:16.179Z,19.16
2018-05-09T02:32:15.622Z,19.13
2018-05-09T02:33:15.608Z,19.13
2018-05-09T02:34:15.530Z,19.1
2018-05-09T02:35:15.583Z,19.08
2018-05-09T02:36:15.560Z,19.09
2018-05-09T02:37:15.571Z,19.1
2018-05-09T02:38:15.574Z,19.1
2018-05-09T02:39:15.584Z,19.05
2018-05-09T02:40:15.590Z,19.01
2018-05-09T02:41:15.594Z,19.01
2018-05-09T02:42:15.573Z,18.95
2018-05-09T02:43:16.216Z,18.98
2018-05-09T02:44:15.578Z,18.92
2018-05-09T02:45:15.660Z,18.94
2018-05-09T02:46:15.605Z,18.95
2018-05-09T02:47:15.699Z,18.89
2018-05-09T02:48:15.576Z,18.88
2018-05-09T02:49:15.669Z,18.85
2018-05-09T02:50:15.693Z,18.87
2018-05-09T02:51:15.691Z,18.88
2018-05-09T02:52:15.593Z,18.85
2018-05-09T02:53:15.556Z,18.85
2018-05-09T02:54:15.607Z,18.89
2018-05-09T02:55:15.752Z,18.89
2018-05-09T02:56:15.733Z,18.82
2018-05-09T02:57:15.697Z,18.81
2018-05-09T02:58:15.747Z,18.82
2018-05-09T02:59:15.572Z,18.8
2018-05-09T03:00:15.653Z,18.8
2018-05-09T03:01:15.589Z,18.78
2018-05-09T03:02:15.637Z,18.77
2018-05-09T03:03:15.602Z,18.75
2018-05-09T03:04:15.599Z,18.77
2018-05-09T03:05:15.591Z,18.75
2018-05-09T03:06:15.605Z,18.78
2018-05-09T03:07:15.570Z,18.75
2018-05-09T03:08:15.617Z,18.78
2018-05-09T03:09:15.709Z,18.78
2018-05-09T03:10:15.623Z,18.72
2018-05-09T03:11:15.609Z,18.72
2018-05-09T03:12:15.604Z,18.7
2018-05-09T03:13:15.611Z,18.7
2018-05-09T03:14:15.587Z,18.7
2018-05-09T03:15:15.695Z,18.7
2018-05-09T03:16:15.626Z,18.7
2018-05-09T03:17:15.781Z,18.67
2018-05-09T03:18:15.589Z,18.67
2018-05-09T03:19:15.752Z,18.68
2018-05-09T03:20:15.662Z,18.66
2018-05-09T03:21:15.562Z,18.64
2018-05-09T03:22:15.570Z,18.67
2018-05-09T03:23:15.609Z,18.67
2018-05-09T03:24:15.573Z,18.64
2018-05-09T03:25:15.568Z,18.67
2018-05-09T03:26:15.563Z,18.67
2018-05-09T03:27:15.617Z,18.64
2018-05-09T03:28:15.568Z,18.64
2018-05-09T03:29:15.648Z,18.61
2018-05-09T03:30:15.625Z,18.6
2018-05-09T03:31:15.659Z,18.57
2018-05-09T03:32:15.578Z,18.56
2018-05-09T03:33:15.661Z,18.54
2018-05-09T03:34:15.651Z,18.54
2018-05-09T03:35:15.558Z,18.53
2018-05-09T03:36:15.606Z,18.57
2018-05-09T03:37:15.601Z,18.56
2018-05-09T03:38:15.591Z,18.52
2018-05-09T03:39:15.615Z,18.53
2018-05-09T03:40:15.629Z,18.47
2018-05-09T03:41:15.597Z,18.47
2018-05-09T03:42:15.591Z,18.5
2018-05-09T03:43:15.609Z,18.47
2018-05-09T03:44:15.606Z,18.49
2018-05-09T03:45:15.791Z,18.49
2018-05-09T03:46:15.636Z,18.49
2018-05-09T03:47:15.611Z,18.44
2018-05-09T03:48:15.674Z,18.44
2018-05-09T03:49:15.785Z,18.42
2018-05-09T03:50:15.690Z,18.44
2018-05-09T03:51:15.677Z,18.37
2018-05-09T03:52:15.728Z,18.35
2018-05-09T03:53:15.833Z,18.37
2018-05-09T03:54:15.802Z,18.36
2018-05-09T03:55:15.621Z,18.35
2018-05-09T03:56:15.665Z,18.36
2018-05-09T03:57:15.719Z,18.36
2018-05-09T03:58:15.616Z,18.35
2018-05-09T03:59:15.639Z,18.35
2018-05-09T04:00:15.670Z,18.33
2018-05-09T04:01:15.751Z,18.33
2018-05-09T04:02:15.612Z,18.33
2018-05-09T04:03:15.752Z,18.33
2018-05-09T04:04:15.655Z,18.32
2018-05-09T04:05:15.778Z,18.32
2018-05-09T04:06:15.768Z,18.32
2018-05-09T04:07:15.631Z,18.3
2018-05-09T04:08:15.722Z,18.32
2018-05-09T04:09:15.647Z,18.29
2018-05-09T04:10:15.626Z,18.25
2018-05-09T04:11:15.588Z,18.27
2018-05-09T04:12:15.847Z,18.27
2018-05-09T04:13:15.981Z,18.23
2018-05-09T04:14:15.630Z,18.25
2018-05-09T04:15:15.695Z,18.2
2018-05-09T04:16:15.599Z,18.22
2018-05-09T04:17:15.591Z,18.19
2018-05-09T04:18:15.646Z,18.2
2018-05-09T04:19:15.623Z,18.17
2018-05-09T04:20:15.617Z,18.16
2018-05-09T04:21:15.729Z,18.17
2018-05-09T04:22:15.708Z,18.15
2018-05-09T04:23:15.808Z,18.16
2018-05-09T04:24:15.721Z,18.16
2018-05-09T04:25:15.693Z,18.15
2018-05-09T04:26:15.586Z,18.15
2018-05-09T04:27:15.742Z,18.12
2018-05-09T04:28:16.033Z,18.11
2018-05-09T04:29:15.643Z,18.09
2018-05-09T04:30:15.673Z,18.08
2018-05-09T04:31:15.637Z,18.09
2018-05-09T04:32:15.639Z,18.05
2018-05-09T04:33:15.610Z,18.05
2018-05-09T04:34:15.623Z,18.08
2018-05-09T04:35:15.622Z,18.05
2018-05-09T04:36:15.824Z,18.05
2018-05-09T04:37:15.652Z,18.01
2018-05-09T04:38:15.657Z,18.04
2018-05-09T04:39:15.671Z,18.01
2018-05-09T04:40:15.685Z,18.02
2018-05-09T04:41:15.770Z,17.98
2018-05-09T04:42:15.701Z,17.99
2018-05-09T04:43:15.626Z,17.99
2018-05-09T04:44:15.718Z,17.98
2018-05-09T04:45:15.660Z,17.97
2018-05-09T04:46:15.636Z,17.99
2018-05-09T04:47:15.736Z,17.98
2018-05-09T04:48:15.613Z,17.97
2018-05-09T04:49:15.855Z,17.98
2018-05-09T04:50:15.672Z,17.99
2018-05-09T04:51:15.658Z,18.01
2018-05-09T04:52:15.614Z,18.01
2018-05-09T04:53:15.667Z,18.04
2018-05-09T04:54:15.659Z,18.02
2018-05-09T04:55:15.757Z,18.01
2018-05-09T04:56:15.543Z,18.04
2018-05-09T04:57:15.571Z,18.06
2018-05-09T04:58:15.599Z,18.04
2018-05-09T04:59:15.722Z,18.05
2018-05-09T05:00:15.603Z,18.05
2018-05-09T05:01:15.582Z,18.06
2018-05-09T05:02:15.595Z,18.11
2018-05-09T05:03:15.598Z,18.06
2018-05-09T05:04:15.571Z,17.89
2018-05-09T05:05:15.611Z,17.92
2018-05-09T05:06:15.691Z,17.85
2018-05-09T05:07:15.591Z,17.67
2018-05-09T05:08:15.761Z,17.42
2018-05-09T05:09:15.588Z,17.46
2018-05-09T05:10:15.660Z,17.42
2018-05-09T05:11:15.601Z,17.47
2018-05-09T05:12:15.588Z,17.4
2018-05-09T05:13:15.584Z,17.23
2018-05-09T05:14:15.918Z,17.27
2018-05-09T05:15:15.652Z,17.39
2018-05-09T05:16:15.607Z,17.43
2018-05-09T05:17:15.620Z,17.43
2018-05-09T05:18:15.603Z,17.33
2018-05-09T05:19:15.686Z,17.43
2018-05-09T05:20:15.621Z,17.49
2018-05-09T05:21:15.650Z,17.52
2018-05-09T05:22:15.743Z,17.54
2018-05-09T05:23:15.577Z,17.58
2018-05-09T05:24:15.619Z,17.63
2018-05-09T05:25:15.595Z,17.67
2018-05-09T05:26:15.591Z,17.71
2018-05-09T05:27:15.674Z,17.74
2018-05-09T05:28:15.627Z,17.77
2018-05-09T05:29:15.584Z,17.69
2018-05-09T05:30:15.588Z,17.64
2018-05-09T05:31:15.565Z,17.69
2018-05-09T05:32:15.601Z,17.71
2018-05-09T05:33:15.611Z,17.73
2018-05-09T05:34:15.605Z,17.7
2018-05-09T05:35:15.607Z,17.63
2018-05-09T05:36:15.590Z,17.69
2018-05-09T05:37:15.674Z,17.73
2018-05-09T05:38:16.018Z,17.74
2018-05-09T05:39:15.605Z,17.78
2018-05-09T05:40:15.595Z,17.82
2018-05-09T05:41:15.604Z,17.82
2018-05-09T05:42:15.611Z,17.82
2018-05-09T05:43:15.657Z,17.85
2018-05-09T05:44:15.621Z,17.89
2018-05-09T05:45:16.536Z,17.95
2018-05-09T05:46:15.617Z,17.95
2018-05-09T05:47:15.622Z,17.99
2018-05-09T05:48:15.651Z,18.02
2018-05-09T05:49:15.647Z,18.08
2018-05-09T05:50:15.653Z,18.08
2018-05-09T05:51:15.603Z,18.13
2018-05-09T05:52:15.610Z,18.13
2018-05-09T05:53:15.594Z,18.13
2018-05-09T05:54:15.615Z,18.17
2018-05-09T05:55:15.649Z,18.17
2018-05-09T05:56:15.605Z,18.22
2018-05-09T05:57:15.620Z,18.23
2018-05-09T05:58:15.637Z,18.22
2018-05-09T05:59:15.649Z,18.25
2018-05-09T06:00:15.645Z,18.25
2018-05-09T06:01:15.624Z,18.26
2018-05-09T06:02:15.588Z,18.25
2018-05-09T06:03:15.752Z,18.27
2018-05-09T06:04:15.581Z,18.29
2018-05-09T06:05:15.636Z,18.32
2018-05-09T06:06:15.619Z,18.32
2018-05-09T06:07:15.624Z,18.35
2018-05-09T06:08:15.739Z,18.35
2018-05-09T06:09:15.718Z,18.35
2018-05-09T06:10:15.627Z,18.33
2018-05-09T06:11:15.667Z,18.36
2018-05-09T06:12:15.626Z,18.32
2018-05-09T06:13:15.626Z,18.32
2018-05-09T06:14:15.641Z,18.35
2018-05-09T06:15:15.656Z,18.35
2018-05-09T06:16:15.771Z,18.39
2018-05-09T06:17:15.778Z,18.4
2018-05-09T06:18:15.646Z,18.39
2018-05-09T06:19:15.607Z,18.4
2018-05-09T06:20:15.609Z,18.42
2018-05-09T06:21:15.626Z,18.42
2018-05-09T06:22:15.625Z,18.44
2018-05-09T06:23:15.627Z,18.46
2018-05-09T06:24:15.982Z,18.47
2018-05-09T06:25:15.652Z,18.49
2018-05-09T06:26:15.662Z,18.5
2018-05-09T06:27:15.626Z,18.53
2018-05-09T06:28:15.680Z,18.56
2018-05-09T06:29:15.639Z,18.57
2018-05-09T06:30:15.617Z,18.59
2018-05-09T06:31:15.674Z,18.59
2018-05-09T06:32:15.644Z,18.59
2018-05-09T06:33:15.625Z,18.63
2018-05-09T06:34:15.621Z,18.66
2018-05-09T06:35:15.666Z,18.66
2018-05-09T06:36:15.664Z,18.7
2018-05-09T06:37:15.616Z,18.71
2018-05-09T06:38:15.618Z,18.75
2018-05-09T06:39:15.630Z,18.8
2018-05-09T06:40:15.624Z,18.8
2018-05-09T06:41:15.644Z,18.84
2018-05-09T06:42:15.723Z,18.87
2018-05-09T06:43:15.837Z,18.92
2018-05-09T06:44:15.620Z,18.89
2018-05-09T06:45:15.682Z,18.8
2018-05-09T06:46:15.659Z,18.78
2018-05-09T06:47:15.689Z,18.81
2018-05-09T06:48:15.640Z,18.87
2018-05-09T06:49:15.642Z,18.94
2018-05-09T06:50:15.648Z,18.97
2018-05-09T06:51:15.617Z,18.94
2018-05-09T06:52:15.634Z,19.01
2018-05-09T06:53:15.714Z,19.06
2018-05-09T06:54:15.639Z,19.12
2018-05-09T06:55:15.630Z,19.19
2018-05-09T06:56:15.616Z,19.23
2018-05-09T06:57:15.643Z,19.29
2018-05-09T06:58:15.851Z,19.32
2018-05-09T06:59:15.677Z,19.33
2018-05-09T07:00:15.634Z,19.34
2018-05-09T07:01:15.631Z,19.36
2018-05-09T07:02:15.646Z,19.4
2018-05-09T07:03:15.632Z,19.44
2018-05-09T07:04:15.659Z,19.47
2018-05-09T07:05:15.654Z,19.53
2018-05-09T07:06:16.116Z,19.6
2018-05-09T07:07:15.629Z,19.64
2018-05-09T07:08:15.637Z,19.7
2018-05-09T07:09:15.667Z,19.72
2018-05-09T07:10:15.640Z,19.77
2018-05-09T07:11:15.635Z,19.82
2018-05-09T07:12:15.635Z,19.81
2018-05-09T07:13:15.656Z,19.82
2018-05-09T07:14:15.645Z,19.89
2018-05-09T07:15:15.675Z,19.95
2018-05-09T07:16:15.736Z,19.98
2018-05-09T07:17:15.640Z,19.99
2018-05-09T07:18:15.848Z,20.05
2018-05-09T07:19:15.657Z,20.04
2018-05-09T07:20:15.636Z,20.08
2018-05-09T07:21:15.668Z,20.13
2018-05-09T07:22:16.021Z,20.17
2018-05-09T07:23:15.863Z,20.16
2018-05-09T07:24:15.939Z,20.13
2018-05-09T07:25:15.642Z,20.15
2018-05-09T07:26:15.649Z,20.19
2018-05-09T07:27:15.658Z,20.17
2018-05-09T07:28:15.785Z,20.19
2018-05-09T07:29:15.757Z,20.17
2018-05-09T07:30:15.850Z,20.22
2018-05-09T07:31:15.682Z,20.32
2018-05-09T07:32:15.685Z,20.33
2018-05-09T07:33:15.698Z,20.39
2018-05-09T07:34:15.647Z,20.43
2018-05-09T07:35:15.669Z,20.46
2018-05-09T07:36:15.651Z,20.47
2018-05-09T07:37:15.998Z,20.52
2018-05-09T07:38:15.679Z,20.51
2018-05-09T07:39:15.669Z,20.52
2018-05-09T07:40:15.797Z,20.52
2018-05-09T07:41:15.686Z,20.54
2018-05-09T07:42:15.868Z,20.58
2018-05-09T07:43:15.710Z,20.64
2018-05-09T07:44:15.690Z,20.67
2018-05-09T07:45:15.744Z,20.67
2018-05-09T07:46:15.688Z,20.68
2018-05-09T07:47:15.720Z,20.71
2018-05-09T07:48:15.684Z,20.74
2018-05-09T07:49:15.711Z,20.74
2018-05-09T07:50:15.658Z,20.78
2018-05-09T07:51:15.704Z,20.79
2018-05-09T07:52:15.669Z,20.81
2018-05-09T07:53:15.906Z,20.82
2018-05-09T07:54:15.672Z,20.82
2018-05-09T07:55:15.692Z,20.85
2018-05-09T07:56:15.661Z,20.88
2018-05-09T07:57:15.704Z,20.95
2018-05-09T07:58:15.667Z,21.01
2018-05-09T07:59:16.412Z,20.98
2018-05-09T08:00:15.662Z,20.98
2018-05-09T08:01:15.679Z,21.02
2018-05-09T08:02:15.701Z,20.99
2018-05-09T08:03:15.668Z,20.98
2018-05-09T08:04:15.681Z,20.99
2018-05-09T08:05:15.679Z,21.01
2018-05-09T08:06:15.684Z,21.06
2018-05-09T08:07:15.681Z,21.07
2018-05-09T08:08:15.669Z,20.99
2018-05-09T08:09:15.746Z,21.03
2018-05-09T08:10:15.697Z,21.05
2018-05-09T08:11:15.703Z,21.07
2018-05-09T08:12:16.014Z,21.07
2018-05-09T08:13:15.689Z,21.05
2018-05-09T08:14:15.679Z,21.03
2018-05-09T08:15:15.673Z,21.05
2018-05-09T08:16:15.704Z,21.02
2018-05-09T08:17:15.698Z,20.95
2018-05-09T08:18:15.677Z,20.96
2018-05-09T08:19:15.703Z,20.89
2018-05-09T08:20:15.782Z,20.96
2018-05-09T08:21:15.696Z,20.96
2018-05-09T08:22:15.731Z,21.03
2018-05-09T08:23:15.732Z,21.06
2018-05-09T08:24:15.739Z,20.99
2018-05-09T08:25:15.718Z,21.02
2018-05-09T08:26:15.705Z,20.95
2018-05-09T08:27:15.738Z,20.98
2018-05-09T08:28:15.791Z,21.05
2018-05-09T08:29:15.726Z,21.07
2018-05-09T08:30:15.961Z,21.15
2018-05-09T08:31:15.688Z,21.17
2018-05-09T08:32:15.759Z,21.2
2018-05-09T08:33:15.854Z,21.22
2018-05-09T08:34:15.722Z,21.26
2018-05-09T08:35:15.738Z,21.29
2018-05-09T08:36:16.122Z,21.26
2018-05-09T08:37:15.714Z,21.3
2018-05-09T08:38:15.711Z,21.32
2018-05-09T08:39:15.728Z,21.36
2018-05-09T08:40:15.713Z,21.36
2018-05-09T08:41:15.730Z,21.39
2018-05-09T08:42:15.728Z,21.43
2018-05-09T08:43:16.148Z,21.39
2018-05-09T08:44:15.743Z,21.43
2018-05-09T08:45:15.710Z,21.44
2018-05-09T08:46:15.875Z,21.44
2018-05-09T08:47:15.687Z,21.36
2018-05-09T08:48:15.692Z,21.37
2018-05-09T08:49:15.872Z,21.36
2018-05-09T08:50:15.723Z,21.26
2018-05-09T08:51:15.708Z,21.27
2018-05-09T08:52:15.728Z,21.26
2018-05-09T08:53:15.786Z,21.12
2018-05-09T08:54:15.705Z,21.22
2018-05-09T08:55:15.741Z,21.3
2018-05-09T08:56:15.731Z,21.2
2018-05-09T08:57:15.710Z,21.26
2018-05-09T08:58:15.745Z,21.32
2018-05-09T08:59:15.747Z,21.36
2018-05-09T09:00:15.765Z,21.41
2018-05-09T09:01:15.715Z,21.43
2018-05-09T09:02:15.726Z,21.44
2018-05-09T09:03:15.741Z,21.53
2018-05-09T09:04:15.928Z,21.51
2018-05-09T09:05:15.739Z,21.53
2018-05-09T09:06:15.726Z,21.56
2018-05-09T09:07:15.723Z,21.6
2018-05-09T09:08:15.759Z,21.69
2018-05-09T09:09:15.774Z,21.74
2018-05-09T09:10:15.725Z,21.78
2018-05-09T09:11:15.763Z,21.78
2018-05-09T09:12:15.778Z,21.77
2018-05-09T09:13:15.741Z,21.84
2018-05-09T09:14:15.722Z,21.75
2018-05-09T09:15:15.907Z,21.74
2018-05-09T09:16:15.798Z,21.79
2018-05-09T09:17:15.732Z,21.86
2018-05-09T09:18:15.779Z,21.91
2018-05-09T09:19:15.850Z,21.95
2018-05-09T09:20:15.723Z,21.96
2018-05-09T09:21:15.724Z,21.94
2018-05-09T09:22:15.735Z,22.02
2018-05-09T09:23:15.768Z,22.03
2018-05-09T09:24:15.716Z,22.08
2018-05-09T09:25:15.715Z,22.12
2018-05-09T09:26:15.755Z,22.15
2018-05-09T09:27:15.733Z,22.12
2018-05-09T09:28:15.787Z,22.05
2018-05-09T09:29:16.107Z,22.09
2018-05-09T09:30:15.732Z,22.15
2018-05-09T09:31:15.728Z,22.12
2018-05-09T09:32:15.737Z,22.2
2018-05-09T09:33:15.728Z,22.26
2018-05-09T09:34:15.713Z,22.31
2018-05-09T09:35:15.727Z,22.37
2018-05-09T09:36:15.753Z,22.36
2018-05-09T09:37:15.722Z,22.37
2018-05-09T09:38:15.774Z,22.5
2018-05-09T09:39:15.734Z,22.56
2018-05-09T09:40:15.758Z,22.61
2018-05-09T09:41:15.734Z,22.68
2018-05-09T09:42:15.740Z,22.71
2018-05-09T09:43:15.741Z,22.74
2018-05-09T09:44:15.717Z,22.79
2018-05-09T09:45:15.733Z,22.82
2018-05-09T09:46:15.725Z,22.84
2018-05-09T09:47:15.718Z,22.91
2018-05-09T09:48:15.749Z,22.94
2018-05-09T09:49:15.751Z,22.82
2018-05-09T09:50:15.756Z,22.68
2018-05-09T09:51:15.730Z,22.74
2018-05-09T09:52:15.721Z,22.7
2018-05-09T09:53:15.833Z,22.63
2018-05-09T09:54:15.787Z,22.63
2018-05-09T09:55:15.734Z,22.64
2018-05-09T09:56:15.737Z,22.7
2018-05-09T09:57:15.735Z,22.63
2018-05-09T09:58:15.734Z,22.65
2018-05-09T09:59:15.732Z,22.67
2018-05-09T10:00:15.804Z,22.68
2018-05-09T10:01:15.794Z,22.76
2018-05-09T10:02:15.776Z,22.84
2018-05-09T10:03:15.766Z,22.91
2018-05-09T10:04:15.772Z,22.98
2018-05-09T10:05:15.780Z,23.01
2018-05-09T10:06:15.791Z,23.12
2018-05-09T10:07:15.733Z,23.22
2018-05-09T10:08:15.762Z,23.32
2018-05-09T10:09:15.771Z,23.36
2018-05-09T10:10:15.845Z,23.43
2018-05-09T10:11:15.761Z,23.51
2018-05-09T10:12:15.775Z,23.43
2018-05-09T10:13:15.757Z,23.4
2018-05-09T10:14:15.751Z,23.5
2018-05-09T10:15:15.798Z,23.54
2018-05-09T10:16:15.908Z,23.57
2018-05-09T10:17:15.804Z,23.62
2018-05-09T10:18:15.750Z,23.69
2018-05-09T10:19:16.154Z,23.77
2018-05-09T10:20:15.760Z,23.84
2018-05-09T10:21:15.763Z,23.91
2018-05-09T10:22:15.754Z,23.93
2018-05-09T10:23:16.072Z,23.96
2018-05-09T10:24:15.940Z,23.99
2018-05-09T10:25:15.799Z,24.02
2018-05-09T10:26:15.805Z,24.02
2018-05-09T10:27:15.748Z,24.03
2018-05-09T10:28:15.753Z,24.05
2018-05-09T10:29:15.788Z,24.09
2018-05-09T10:30:15.822Z,24.1
2018-05-09T10:31:15.767Z,24.12
2018-05-09T10:32:15.759Z,24.08
2018-05-09T10:33:15.811Z,24.13
2018-05-09T10:34:15.754Z,24.17
2018-05-09T10:35:15.779Z,24.23
2018-05-09T10:36:15.902Z,24.2
2018-05-09T10:37:15.771Z,24.16
2018-05-09T10:38:15.776Z,24.03
2018-05-09T10:39:15.773Z,24.03
2018-05-09T10:40:15.797Z,24.12
2018-05-09T10:41:15.786Z,24.15
2018-05-09T10:42:15.773Z,24.2
2018-05-09T10:43:15.783Z,24.01
2018-05-09T10:44:15.759Z,24.08
2018-05-09T10:45:15.776Z,24.19
2018-05-09T10:46:15.766Z,24.01
2018-05-09T10:47:15.789Z,24.01
2018-05-09T10:48:15.762Z,24.1
2018-05-09T10:49:15.814Z,24.05
2018-05-09T10:50:15.780Z,23.96
2018-05-09T10:51:15.779Z,23.96
2018-05-09T10:52:15.785Z,24.06
2018-05-09T10:53:15.933Z,24.16
2018-05-09T10:54:15.826Z,24.27
2018-05-09T10:55:15.782Z,24.36
2018-05-09T10:56:15.773Z,24.4
2018-05-09T10:57:16.105Z,24.43
2018-05-09T10:58:15.881Z,24.51
2018-05-09T10:59:15.796Z,24.55
2018-05-09T11:00:15.773Z,24.58
2018-05-09T11:01:15.951Z,24.6
2018-05-09T11:02:15.907Z,24.58
2018-05-09T11:03:16.036Z,24.63
2018-05-09T11:04:15.802Z,24.71
2018-05-09T11:05:15.837Z,24.75
2018-05-09T11:06:15.768Z,24.81
2018-05-09T11:07:15.828Z,24.89
2018-05-09T11:08:15.973Z,24.97
2018-05-09T11:09:15.799Z,25.02
2018-05-09T11:10:15.790Z,25.09
2018-05-09T11:11:15.863Z,25.12
2018-05-09T11:12:15.857Z,25.13
2018-05-09T11:13:15.877Z,25.22
2018-05-09T11:14:16.586Z,25.2
2018-05-09T11:15:15.933Z,25.26
2018-05-09T11:16:15.927Z,25.26
2018-05-09T11:17:15.855Z,25.32
2018-05-09T11:18:16.074Z,25.38
2018-05-09T11:19:15.847Z,25.38
2018-05-09T11:20:15.881Z,25.43
2018-05-09T11:21:15.807Z,25.43
2018-05-09T11:22:15.887Z,25.44
2018-05-09T11:23:15.784Z,25.48
2018-05-09T11:24:16.117Z,25.6
2018-05-09T11:25:15.991Z,25.65
2018-05-09T11:26:15.839Z,25.7
2018-05-09T11:27:15.962Z,25.64
2018-05-09T11:28:15.973Z,25.71
2018-05-09T11:29:15.983Z,25.78
2018-05-09T11:30:15.826Z,25.88
2018-05-09T11:31:16.034Z,25.85
2018-05-09T11:32:15.998Z,25.81
2018-05-09T11:33:15.941Z,25.74
2018-05-09T11:34:15.796Z,25.71
2018-05-09T11:35:15.808Z,25.7
2018-05-09T11:36:15.810Z,25.77
2018-05-09T11:37:15.846Z,25.84
2018-05-09T11:38:15.918Z,25.89
2018-05-09T11:39:15.959Z,25.99
2018-05-09T11:40:15.791Z,25.93
2018-05-09T11:41:15.861Z,25.89
2018-05-09T11:42:15.899Z,25.74
2018-05-09T11:43:15.813Z,25.8
2018-05-09T11:44:15.808Z,25.91
2018-05-09T11:45:15.811Z,25.92
2018-05-09T11:46:15.803Z,25.78
2018-05-09T11:47:15.827Z,25.78
2018-05-09T11:48:15.819Z,25.8
2018-05-09T11:49:15.878Z,25.43
2018-05-09T11:50:15.815Z,25.23
2018-05-09T11:51:15.805Z,25.22
2018-05-09T11:52:15.797Z,25.03
2018-05-09T11:53:16.488Z,25.08
2018-05-09T11:54:15.814Z,25.26
2018-05-09T11:55:15.829Z,25.19
2018-05-09T11:56:15.890Z,25.29
2018-05-09T11:57:15.833Z,25.27
2018-05-09T11:58:16.001Z,25.36
2018-05-09T11:59:15.830Z,25.57
2018-05-09T12:00:15.882Z,25.47
2018-05-09T12:01:15.843Z,25.47
2018-05-09T12:02:16.045Z,25.23
2018-05-09T12:03:15.887Z,25.16
2018-05-09T12:04:15.817Z,25.22
2018-05-09T12:05:15.931Z,25.37
2018-05-09T12:06:15.863Z,25.48
2018-05-09T12:07:15.827Z,25.6
2018-05-09T12:08:15.933Z,25.61
2018-05-09T12:09:15.921Z,25.65
2018-05-09T12:10:16.213Z,25.65
2018-05-09T12:11:15.853Z,25.64
2018-05-09T12:12:15.955Z,25.53
2018-05-09T12:13:15.845Z,25.63
2018-05-09T12:14:15.918Z,25.65
2018-05-09T12:15:15.850Z,25.7
2018-05-09T12:16:15.847Z,25.74
2018-05-09T12:17:15.877Z,25.7
2018-05-09T12:18:15.848Z,25.6
2018-05-09T12:19:15.936Z,25.63
2018-05-09T12:20:15.827Z,25.56
2018-05-09T12:21:15.857Z,25.43
2018-05-09T12:22:15.986Z,25.5
2018-05-09T12:23:15.834Z,25.57
2018-05-09T12:24:15.831Z,25.72
2018-05-09T12:25:15.848Z,25.74
2018-05-09T12:26:15.823Z,25.82
2018-05-09T12:27:15.831Z,25.93
2018-05-09T12:28:15.836Z,26.05
2018-05-09T12:29:16.020Z,26.13
2018-05-09T12:30:15.977Z,26.23
2018-05-09T12:31:15.898Z,26.32
2018-05-09T12:32:15.896Z,26.4
2018-05-09T12:33:15.954Z,26.44
2018-05-09T12:34:15.880Z,26.53
2018-05-09T12:35:15.893Z,26.48
2018-05-09T12:36:15.873Z,26.44
2018-05-09T12:37:15.835Z,26.44
2018-05-09T12:38:15.921Z,26.5
2018-05-09T12:39:15.843Z,26.43
2018-05-09T12:40:16.112Z,26.44
2018-05-09T12:41:16.001Z,26.37
2018-05-09T12:42:15.942Z,26.15
2018-05-09T12:43:15.838Z,26.22
2018-05-09T12:44:15.901Z,26.16
2018-05-09T12:45:15.962Z,26.13
2018-05-09T12:46:15.988Z,26.19
2018-05-09T12:47:15.997Z,26.02
2018-05-09T12:48:15.918Z,25.92
2018-05-09T12:49:15.853Z,26.08
2018-05-09T12:50:15.874Z,26.15
2018-05-09T12:51:15.835Z,26.25
2018-05-09T12:52:15.831Z,26.27
2018-05-09T12:53:15.922Z,26.4
2018-05-09T12:54:15.899Z,26.48